Time;durP1;ratioP1;P1;durP2;ratioP2;P2;SDS_P1;SDS_P2;PMS_P1;PMS_P2;Temp;Humidity;BMP_temperature;BMP_pressure;BME280_temperature;BME280_humidity;BME280_pressure;Samples;Min_cycle;Max_cycle;Signal;HPM_P1;HPM_P2
2022/01/03 00:04:45;;;;;;;2.38;1.08;;;;;;;9.30;65.83;97411.53;12766644;23;20096;-79
2022/01/03 00:10:07;;;;;;;3.83;1.33;;;;;;;9.24;65.77;97410.38;12737045;23;20455;-79
2022/01/03 00:15:28;;;;;;;4.78;1.13;;;;;;;9.24;65.84;97405.53;12736524;23;20017;-79
2022/01/03 00:20:56;;;;;;;3.40;1.10;;;;;;;9.22;65.48;97391.47;12737564;23;20025;-79
2022/01/03 00:26:23;;;;;;;3.92;1.33;;;;;;;9.21;65.63;97392.81;12758470;23;20025;-79
2022/01/03 00:31:43;;;;;;;3.30;1.08;;;;;;;9.23;65.69;97386.63;12759448;23;20013;-79
2022/01/03 00:37:06;;;;;;;2.50;0.88;;;;;;;9.22;65.93;97383.13;12777596;23;20017;-79
2022/01/03 00:42:26;;;;;;;3.58;0.70;;;;;;;9.25;65.57;97375.63;12758110;23;20064;-79
2022/01/03 00:47:47;;;;;;;4.70;1.00;;;;;;;9.36;65.48;97372.94;12737491;23;20383;-78
2022/01/03 00:53:08;;;;;;;2.28;0.77;;;;;;;9.40;65.35;97367.63;12777370;23;20026;-79
2022/01/03 00:59:00;;;;;;;3.92;1.10;;;;;;;9.34;65.31;97370.00;12758504;23;20025;-79
2022/01/03 01:04:22;;;;;;;5.50;1.45;;;;;;;9.31;65.29;97356.53;12793739;23;20020;-79
2022/01/03 01:09:50;;;;;;;4.38;1.08;;;;;;;9.27;65.19;97345.16;12743010;23;20020;-79
2022/01/03 01:15:11;;;;;;;4.25;1.17;;;;;;;9.25;65.50;97345.72;12760780;23;20017;-78
2022/01/03 01:20:35;;;;;;;4.22;1.05;;;;;;;9.24;65.23;97329.63;12761164;23;20076;-79
2022/01/03 01:31:36;;;;;;;4.20;0.90;;;;;;;9.37;65.37;97345.81;12763541;23;20017;-78
2022/01/03 01:36:58;;;;;;;3.05;1.00;;;;;;;9.50;64.67;97334.13;12740299;23;20494;-78
2022/01/03 01:42:20;;;;;;;3.05;0.90;;;;;;;9.63;64.52;97324.47;12759812;23;20017;-79
2022/01/03 01:47:47;;;;;;;3.70;0.85;;;;;;;9.63;64.56;97300.13;12782378;23;20075;-79
2022/01/03 01:53:09;;;;;;;2.78;0.80;;;;;;;9.57;64.49;97282.31;12780067;23;20019;-79
2022/01/03 01:58:37;;;;;;;4.00;1.05;;;;;;;9.45;64.62;97296.91;12740821;23;20071;-78
2022/01/03 02:04:02;;;;;;;4.40;0.68;;;;;;;9.47;64.43;97248.97;12771554;23;20021;-78
2022/01/03 02:09:31;;;;;;;2.72;0.82;;;;;;;9.56;64.57;97237.00;12760665;23;20387;-79
2022/01/03 02:14:57;;;;;;;5.45;1.27;;;;;;;9.52;64.47;97233.22;12739574;23;20017;-79
2022/01/03 02:20:25;;;;;;;4.68;0.70;;;;;;;9.51;64.30;97220.63;12762162;23;20017;-79
2022/01/03 02:25:51;;;;;;;3.80;1.00;;;;;;;9.45;64.63;97220.97;12760623;23;20432;-78
2022/01/03 02:31:14;;;;;;;2.92;0.80;;;;;;;9.49;64.46;97226.06;12758864;23;20083;-79
2022/01/03 02:36:36;;;;;;;2.22;0.73;;;;;;;9.53;64.18;97220.75;12739765;23;20024;-79
2022/01/03 02:41:58;;;;;;;3.90;0.85;;;;;;;9.60;64.21;97230.94;12799513;23;20325;-79
2022/01/03 02:47:23;;;;;;;2.83;0.70;;;;;;;9.63;64.24;97232.53;12757123;23;20436;-78
2022/01/03 02:52:44;;;;;;;2.88;0.63;;;;;;;9.66;63.87;97220.19;12758112;23;20019;-78
2022/01/03 02:58:07;;;;;;;2.47;0.70;;;;;;;9.70;63.91;97237.16;12760091;23;20020;-79
2022/01/03 03:03:35;;;;;;;4.05;0.90;;;;;;;9.84;63.96;97249.19;12762058;23;20100;-79
2022/01/03 03:08:56;;;;;;;4.07;1.00;;;;;;;9.95;64.87;97256.88;12778188;23;20017;-79
2022/01/03 03:14:20;;;;;;;4.63;0.73;;;;;;;9.86;65.22;97271.63;12759020;23;20017;-79
2022/01/03 03:19:57;;;;;;;2.17;0.30;;;;;;;9.67;66.36;97292.03;12778791;23;20013;-79
2022/01/03 03:25:20;;;;;;;2.28;0.30;;;;;;;9.54;66.49;97294.63;12759388;23;20561;-79
2022/01/03 03:30:46;;;;;;;2.05;0.30;;;;;;;9.48;67.29;97292.22;12757745;23;20013;-79
2022/01/03 03:36:27;;;;;;;2.53;0.38;;;;;;;9.34;67.53;97278.09;12749894;23;20071;-79
2022/01/03 03:41:49;;;;;;;1.58;0.30;;;;;;;9.21;67.81;97270.28;12758790;23;20305;-79
2022/01/03 03:47:12;;;;;;;1.10;0.10;;;;;;;9.10;67.94;97273.72;12777524;23;20013;-79
2022/01/03 03:52:33;;;;;;;0.93;0.20;;;;;;;8.99;68.34;97277.19;12756728;23;20017;-78
2022/01/03 03:57:55;;;;;;;1.02;0.15;;;;;;;8.92;68.91;97278.09;12736495;23;20021;-79
2022/01/03 04:03:18;;;;;;;1.35;0.10;;;;;;;8.89;68.68;97280.03;12757697;23;20021;-79
2022/01/03 04:08:39;;;;;;;1.48;0.20;;;;;;;8.88;68.96;97267.44;12737220;23;20378;-79
2022/01/03 04:14:01;;;;;;;1.20;0.10;;;;;;;8.87;68.48;97286.16;12736868;23;20505;-79
2022/01/03 04:19:23;;;;;;;0.88;0.10;;;;;;;8.82;68.36;97292.78;12737426;23;20068;-79
2022/01/03 04:24:44;;;;;;;1.33;0.30;;;;;;;8.73;68.64;97301.91;12736956;23;20033;-79
2022/01/03 04:30:06;;;;;;;0.13;0.00;;;;;;;8.67;68.66;97312.63;12739459;23;20021;-78
2022/01/03 04:35:27;;;;;;;1.50;0.10;;;;;;;8.62;68.99;97302.56;12725015;23;20029;-79
2022/01/03 04:40:48;;;;;;;0.70;0.10;;;;;;;8.65;68.58;97329.19;12768321;23;20064;-79
2022/01/03 04:46:10;;;;;;;0.43;0.10;;;;;;;8.62;68.62;97319.25;12768890;23;20017;-79
2022/01/03 04:51:32;;;;;;;0.25;0.10;;;;;;;8.59;68.37;97315.63;12769731;23;20013;-79
2022/01/03 04:56:59;;;;;;;0.82;0.03;;;;;;;8.58;68.32;97327.31;12784419;23;20017;-79
2022/01/03 05:02:22;;;;;;;0.75;0.10;;;;;;;8.50;69.03;97330.28;12769565;23;20144;-79
2022/01/03 05:07:46;;;;;;;0.10;0.00;;;;;;;8.48;68.55;97338.47;12759384;23;20024;-80
2022/01/03 05:13:08;;;;;;;0.20;0.00;;;;;;;8.38;68.76;97343.34;12779813;23;20017;-79
2022/01/03 05:18:30;;;;;;;1.05;0.10;;;;;;;8.28;68.81;97325.94;12781455;23;20025;-79
2022/01/03 05:23:52;;;;;;;1.15;0.10;;;;;;;8.25;69.05;97333.41;12762741;23;20025;-79
2022/01/03 05:29:15;;;;;;;0.40;0.00;;;;;;;8.18;68.99;97334.28;12742526;23;20309;-79
2022/01/03 05:34:42;;;;;;;0.50;0.10;;;;;;;8.13;68.95;97356.84;12744146;23;20044;-79
2022/01/03 05:40:05;;;;;;;1.50;0.10;;;;;;;8.07;69.23;97346.03;12763995;23;20143;-79
2022/01/03 05:45:28;;;;;;;0.20;0.00;;;;;;;7.94;69.45;97365.94;12783103;23;20093;-80
2022/01/03 05:50:50;;;;;;;0.25;0.10;;;;;;;7.85;69.60;97375.75;12744544;23;20021;-78
2022/01/03 05:56:12;;;;;;;0.73;0.10;;;;;;;7.74;70.05;97365.97;12739156;23;20028;-79
2022/01/03 06:01:35;;;;;;;0.57;0.08;;;;;;;7.65;70.14;97372.25;12760220;23;20021;-79
2022/01/03 06:07:02;;;;;;;0.75;0.10;;;;;;;7.60;70.53;97376.03;12739259;23;20032;-79
2022/01/03 06:12:28;;;;;;;1.50;0.10;;;;;;;7.60;70.79;97378.06;12760598;23;20092;-79
2022/01/03 06:17:50;;;;;;;0.52;0.20;;;;;;;7.78;70.56;97384.22;12758897;23;20017;-79
2022/01/03 06:23:12;;;;;;;1.70;0.32;;;;;;;7.98;70.50;97388.47;12739108;23;20097;-79
2022/01/03 06:28:33;;;;;;;0.80;0.30;;;;;;;7.99;70.08;97387.88;12760009;23;20044;-79
2022/01/03 06:33:54;;;;;;;1.50;0.30;;;;;;;8.04;70.44;97386.13;12739304;23;20017;-79
2022/01/03 06:39:16;;;;;;;0.98;0.40;;;;;;;8.07;70.33;97382.16;12758969;23;20100;-79
2022/01/03 06:44:39;;;;;;;3.53;0.60;;;;;;;8.02;70.70;97386.00;12779480;23;20343;-79
2022/01/03 06:50:01;;;;;;;1.20;0.20;;;;;;;8.02;70.90;97386.72;12759163;23;20017;-79
2022/01/03 06:55:23;;;;;;;2.13;0.70;;;;;;;8.00;70.48;97392.09;12737833;23;20013;-78
2022/01/03 07:00:44;;;;;;;3.28;0.30;;;;;;;8.01;70.28;97401.22;12758601;23;20020;-79
2022/01/03 07:06:06;;;;;;;2.80;0.40;;;;;;;7.98;70.14;97408.66;12763116;23;20266;-79
2022/01/03 07:11:27;;;;;;;1.25;0.30;;;;;;;7.88;70.34;97415.53;12737569;23;20451;-79
2022/01/03 07:22:37;;;;;;;;;;;;;;;7.81;71.17;97419.19;12769025;23;20098;-78
2022/01/03 07:27:58;;;;;;;2.10;0.20;;;;;;;7.85;71.02;97430.59;12781537;23;19990;-78
2022/01/03 07:33:19;;;;;;;3.08;0.47;;;;;;;7.88;70.79;97434.97;12757355;23;20448;-78
2022/01/03 07:38:40;;;;;;;2.25;0.20;;;;;;;7.84;71.06;97440.97;12737389;23;20024;-79
2022/01/03 07:44:01;;;;;;;1.83;0.30;;;;;;;7.88;70.70;97446.09;12739389;23;20021;-78
2022/01/03 07:49:22;;;;;;;1.83;0.30;;;;;;;7.91;71.16;97456.78;12738080;23;20427;-78
2022/01/03 07:54:43;;;;;;;1.30;0.20;;;;;;;8.85;70.61;97477.34;12778455;23;20032;-79
2022/01/03 08:00:06;;;;;;;2.00;0.30;;;;;;;13.39;63.44;97477.75;12761329;23;20064;-79
2022/01/03 08:05:32;;;;;;;2.03;0.30;;;;;;;18.84;54.96;97482.16;12765676;23;20028;-79
2022/01/03 08:10:53;;;;;;;3.15;0.35;;;;;;;20.14;51.51;97480.19;12741813;23;20079;-79
2022/01/03 08:16:13;;;;;;;1.00;0.20;;;;;;;16.62;50.08;97477.09;12785754;23;20013;-79
2022/01/03 08:21:35;;;;;;;1.83;0.35;;;;;;;13.28;54.16;97494.66;12758437;23;20025;-79
2022/01/03 08:26:56;;;;;;;1.80;0.50;;;;;;;11.51;58.03;97499.41;12775440;23;20013;-79
2022/01/03 08:32:17;;;;;;;1.73;0.30;;;;;;;10.46;60.64;97496.44;12763415;23;20017;-79
2022/01/03 08:37:38;;;;;;;2.30;0.40;;;;;;;9.96;61.79;97494.59;12763794;23;20448;-79
2022/01/03 08:42:59;;;;;;;1.25;0.30;;;;;;;10.07;62.63;97499.50;12783853;23;20036;-79
2022/01/03 08:48:20;;;;;;;1.77;0.30;;;;;;;10.19;62.73;97493.97;12765193;23;20013;-78
2022/01/03 08:53:42;;;;;;;1.77;0.43;;;;;;;12.97;59.55;97492.28;12760902;23;20017;-78
2022/01/03 08:59:06;;;;;;;3.25;0.40;;;;;;;21.62;47.84;97493.56;12761466;23;20443;-80
2022/01/03 09:04:27;;;;;;;4.05;0.82;;;;;;;25.30;37.03;97494.84;12771431;23;20013;-78
2022/01/03 09:09:48;;;;;;;1.88;0.30;;;;;;;27.41;33.49;97525.97;12781195;23;20530;-80
2022/01/03 09:15:10;;;;;;;2.92;0.88;;;;;;;28.77;30.08;97522.44;12739797;23;20348;-81
2022/01/03 09:20:31;;;;;;;1.95;0.50;;;;;;;28.64;28.30;97526.84;12758894;23;20017;-80
2022/01/03 09:31:34;;;;;;;2.85;0.50;;;;;;;32.08;22.53;97524.88;12784169;23;20328;-80
2022/01/03 09:36:55;;;;;;;1.58;0.32;;;;;;;31.60;22.35;97535.94;12779796;23;20067;-80
2022/01/03 09:42:21;;;;;;;3.07;1.37;;;;;;;32.73;21.25;97523.44;12758730;23;20092;-80
2022/01/03 09:47:44;;;;;;;2.50;0.55;;;;;;;32.40;19.30;97520.56;12757030;23;20247;-80
2022/01/03 09:53:05;;;;;;;2.28;1.00;;;;;;;30.16;21.49;97530.34;12758163;23;20023;-80
2022/01/03 09:58:26;;;;;;;1.93;0.40;;;;;;;26.30;23.17;97524.53;12779151;23;20013;-79
2022/01/03 10:03:49;;;;;;;1.88;0.60;;;;;;;25.98;24.33;97518.72;12772961;23;20013;-80
2022/01/03 10:09:10;;;;;;;2.80;0.70;;;;;;;29.13;22.42;97497.69;12739855;23;20021;-80
2022/01/03 10:14:31;;;;;;;2.80;0.60;;;;;;;31.15;19.85;97515.84;12738381;23;20017;-79
2022/01/03 10:20:02;;;;;;;;;;;;;;;30.74;19.78;97510.06;12759393;23;20024;-79
2022/01/03 10:25:24;;;;;;;2.22;0.40;;;;;;;31.85;18.52;97492.19;12780067;23;19927;-80
2022/01/03 10:30:45;;;;;;;3.20;0.57;;;;;;;30.73;18.08;97506.47;12758650;23;20017;-79
2022/01/03 10:36:11;;;;;;;2.08;0.55;;;;;;;27.86;21.57;97497.16;12778210;23;20339;-79
2022/01/03 10:41:32;;;;;;;2.85;0.50;;;;;;;29.28;19.47;97496.13;12760502;23;20017;-79
2022/01/03 10:46:52;;;;;;;2.65;0.90;;;;;;;27.30;19.38;97504.50;12778439;23;20021;-83
2022/01/03 10:52:22;;;;;;;3.38;0.77;;;;;;;23.42;23.32;97492.31;12737880;23;20047;-81
2022/01/03 10:57:52;;;;;;;3.70;0.80;;;;;;;21.43;26.08;97507.38;12757841;23;20024;-82
2022/01/03 11:14:33;;;;;;;3.95;0.50;;;;;;;17.55;30.22;97502.50;12765779;23;20498;-81
2022/01/03 11:20:00;;;;;;;2.58;0.60;;;;;;;15.86;32.23;97476.13;12737702;23;20096;-86
2022/01/03 11:25:30;;;;;;;3.35;0.45;;;;;;;14.81;34.92;97477.75;12778965;23;20017;-77
2022/01/03 11:30:52;;;;;;;3.15;0.40;;;;;;;14.15;35.48;97473.88;12778351;23;20013;-77
2022/01/03 11:36:12;;;;;;;2.42;0.50;;;;;;;13.85;37.14;97470.28;12763544;23;19997;-80
2022/01/03 11:41:36;;;;;;;7.80;0.77;;;;;;;13.51;37.57;97455.25;12758385;23;20017;-77
2022/01/03 11:46:56;;;;;;;3.90;0.70;;;;;;;13.50;38.72;97439.03;12757203;23;20020;-76
2022/01/03 11:52:17;;;;;;;6.40;0.80;;;;;;;13.48;39.15;97428.44;12778069;23;20012;-77
2022/01/03 11:58:13;;;;;;;3.22;0.60;;;;;;;13.35;39.57;97441.13;12757899;23;20013;-76
2022/01/03 12:03:39;;;;;;;1.60;0.60;;;;;;;13.13;39.83;97445.53;12756261;23;20020;-77
2022/01/03 12:09:01;;;;;;;3.42;0.93;;;;;;;13.02;41.05;97443.53;12737734;23;20067;-77
2022/01/03 12:14:22;;;;;;;3.10;0.95;;;;;;;13.25;41.29;97429.38;12753672;23;20017;-77
2022/01/03 12:19:47;;;;;;;3.38;0.95;;;;;;;14.22;40.84;97421.56;12777876;23;20024;-77
2022/01/03 12:25:07;;;;;;;3.65;0.93;;;;;;;15.00;40.02;97417.47;12759216;23;20332;-76
2022/01/03 12:30:32;;;;;;;3.35;0.70;;;;;;;15.30;39.65;97407.56;12759012;23;20013;-76
2022/01/03 12:36:18;;;;;;;3.03;0.60;;;;;;;15.34;39.35;97407.75;12738745;23;20017;-76
2022/01/03 12:41:47;;;;;;;2.67;0.52;;;;;;;14.93;39.18;97388.38;12760437;23;20013;-78
2022/01/03 12:47:15;;;;;;;4.03;0.65;;;;;;;14.39;39.62;97390.09;12739955;23;20072;-76
2022/01/03 12:52:40;;;;;;;3.25;0.80;;;;;;;13.71;40.50;97383.34;12738863;23;20336;-76
2022/01/03 12:58:01;;;;;;;2.67;0.68;;;;;;;13.33;41.23;97370.22;12763230;23;20091;-76
2022/01/03 13:03:28;;;;;;;3.78;0.63;;;;;;;13.29;41.61;97373.50;12759517;23;20019;-76
2022/01/03 13:08:55;;;;;;;3.97;0.90;;;;;;;13.32;41.89;97361.06;12764616;23;20024;-76
2022/01/03 13:14:20;;;;;;;3.28;0.82;;;;;;;13.18;41.95;97357.50;12762394;23;20017;-76
2022/01/03 13:19:41;;;;;;;3.30;0.70;;;;;;;12.87;43.07;97338.41;12764594;23;20016;-77
2022/01/03 13:25:02;;;;;;;3.55;0.57;;;;;;;12.72;43.47;97348.13;12762266;23;20087;-76
2022/01/03 13:30:23;;;;;;;5.82;0.70;;;;;;;12.66;43.58;97347.84;12760861;23;20017;-77
2022/01/03 13:36:01;;;;;;;2.67;0.50;;;;;;;12.52;44.32;97352.66;12780033;23;20433;-76
2022/01/03 13:41:21;;;;;;;3.83;0.63;;;;;;;12.41;44.68;97337.41;12719929;23;20088;-76
2022/01/03 13:52:30;;;;;;;3.72;1.02;;;;;;;12.33;45.53;97336.97;12786838;23;20020;-76
2022/01/03 13:57:59;;;;;;;4.88;1.10;;;;;;;12.09;46.09;97327.25;12766486;23;20306;-76
2022/01/03 14:03:21;;;;;;;3.97;1.10;;;;;;;11.80;46.47;97333.34;12762911;23;20021;-75
2022/01/03 14:08:42;;;;;;;3.88;0.52;;;;;;;11.65;47.35;97328.97;12738917;23;20017;-75
2022/01/03 14:14:16;;;;;;;3.97;0.88;;;;;;;11.55;48.37;97334.72;12738385;23;20029;-75
2022/01/03 14:19:36;;;;;;;5.17;0.80;;;;;;;11.43;48.86;97326.38;12759569;23;20052;-74
2022/01/03 14:25:05;;;;;;;2.85;0.60;;;;;;;11.30;50.33;97315.13;12762650;23;20017;-75
2022/01/03 14:30:36;;;;;;;3.08;0.60;;;;;;;11.15;50.18;97291.94;12779807;23;20436;-75
2022/01/03 14:35:57;;;;;;;1.83;0.60;;;;;;;10.97;50.51;97296.47;12781498;23;20438;-74
2022/01/03 14:41:25;;;;;;;4.63;0.88;;;;;;;10.82;51.07;97310.94;12738593;23;20017;-75
2022/01/03 14:46:46;;;;;;;6.03;1.02;;;;;;;10.70;51.71;97304.63;12778671;23;20016;-75
2022/01/03 14:52:07;;;;;;;4.80;0.70;;;;;;;10.59;51.84;97306.78;12779141;23;20328;-74
2022/01/03 14:57:29;;;;;;;3.50;0.90;;;;;;;10.46;52.65;97309.47;12779569;23;20013;-74
2022/01/03 15:02:53;;;;;;;4.28;1.00;;;;;;;10.23;53.18;97301.78;12739062;23;20096;-75
2022/01/03 15:08:14;;;;;;;7.03;0.85;;;;;;;10.08;53.78;97299.44;12758917;23;20352;-74
2022/01/03 15:13:34;;;;;;;3.97;0.93;;;;;;;10.08;54.16;97305.00;12758733;23;20024;-74
2022/01/03 15:18:56;;;;;;;5.25;0.98;;;;;;;10.01;55.08;97298.31;12757157;23;20013;-75
2022/01/03 15:24:16;;;;;;;8.02;1.42;;;;;;;9.91;55.30;97294.91;12757689;23;20020;-74
2022/01/03 15:29:37;;;;;;;3.63;1.30;;;;;;;9.81;55.39;97283.13;12757714;23;20024;-75
2022/01/03 15:34:58;;;;;;;4.55;1.15;;;;;;;9.74;55.98;97270.84;12778468;23;20013;-74
2022/01/03 15:40:18;;;;;;;4.32;1.13;;;;;;;9.66;56.54;97276.66;12737293;23;20017;-75
2022/01/03 15:45:39;;;;;;;4.20;1.08;;;;;;;9.72;56.51;97271.44;12778372;23;20024;-75
2022/01/03 15:51:00;;;;;;;4.97;1.02;;;;;;;9.85;56.76;97266.66;12757331;23;20048;-75
2022/01/03 15:56:21;;;;;;;5.45;1.25;;;;;;;9.88;57.28;97271.75;12777784;23;20441;-75
2022/01/03 16:01:42;;;;;;;5.63;1.13;;;;;;;9.76;57.18;97271.00;12757853;23;20021;-75
2022/01/03 16:07:05;;;;;;;4.68;1.00;;;;;;;9.61;57.84;97257.47;12738328;23;20067;-75
2022/01/03 16:12:27;;;;;;;2.60;0.73;;;;;;;9.53;58.20;97243.03;12737682;23;20016;-75
2022/01/03 16:17:47;;;;;;;6.43;1.40;;;;;;;9.54;58.62;97238.91;12777355;23;20013;-75
2022/01/03 16:23:09;;;;;;;5.50;1.20;;;;;;;9.51;58.57;97240.13;12778413;23;20088;-75
2022/01/03 16:28:29;;;;;;;4.65;1.33;;;;;;;9.46;59.13;97245.44;12758234;23;20040;-74
2022/01/03 16:33:52;;;;;;;8.13;1.95;;;;;;;9.45;59.24;97227.25;12742820;23;20021;-74
2022/01/03 16:39:14;;;;;;;5.10;1.15;;;;;;;9.42;59.77;97220.09;12741220;23;20017;-75
2022/01/03 16:44:36;;;;;;;3.38;1.13;;;;;;;9.50;59.84;97219.91;12761422;23;20021;-75
2022/01/03 16:49:57;;;;;;;3.35;1.10;;;;;;;9.53;60.56;97221.47;12782221;23;20306;-76
2022/01/03 16:55:18;;;;;;;2.75;0.95;;;;;;;9.51;61.00;97217.84;12782157;23;20048;-76
2022/01/03 17:00:39;;;;;;;3.85;1.00;;;;;;;9.42;61.34;97225.69;12760624;23;20408;-76
2022/01/03 17:05:59;;;;;;;5.13;1.25;;;;;;;9.44;61.82;97230.66;12766701;23;20016;-77
2022/01/03 17:11:21;;;;;;;6.68;2.13;;;;;;;9.41;62.68;97226.28;12785729;23;20012;-76
2022/01/03 17:16:41;;;;;;;5.93;1.75;;;;;;;9.35;62.37;97239.81;12783416;23;20463;-76
2022/01/03 17:22:03;;;;;;;4.97;1.80;;;;;;;9.27;64.03;97217.75;12742106;23;20017;-77
2022/01/03 17:27:24;;;;;;;6.05;1.83;;;;;;;9.28;63.92;97208.06;12740181;23;20021;-76
2022/01/03 17:32:44;;;;;;;5.53;2.33;;;;;;;9.24;64.26;97221.72;12762355;23;20394;-75
2022/01/03 17:38:06;;;;;;;5.07;1.95;;;;;;;9.19;64.44;97222.81;12780813;23;20017;-75
2022/01/03 17:43:27;;;;;;;6.55;1.33;;;;;;;9.12;64.50;97210.53;12760431;23;20016;-76
2022/01/03 17:48:48;;;;;;;4.90;1.63;;;;;;;9.13;64.98;97220.34;12740464;23;20021;-75
2022/01/03 17:54:09;;;;;;;5.40;1.42;;;;;;;9.18;65.26;97232.50;12759912;23;20013;-75
2022/01/03 17:59:30;;;;;;;6.70;1.70;;;;;;;9.13;65.88;97223.13;12759640;23;20024;-77
2022/01/03 18:04:51;;;;;;;4.03;0.90;;;;;;;9.20;65.53;97202.00;12779966;23;20028;-76
2022/01/03 18:10:12;;;;;;;3.35;0.90;;;;;;;9.14;65.61;97188.41;12739398;23;20041;-76
2022/01/03 18:15:33;;;;;;;3.38;0.82;;;;;;;9.17;65.45;97208.75;12759794;23;20023;-79
2022/01/03 18:20:54;;;;;;;2.97;1.00;;;;;;;9.18;65.76;97204.66;12779517;23;20020;-76
2022/01/03 18:26:16;;;;;;;3.92;1.00;;;;;;;9.19;66.03;97200.53;12759731;23;20073;-77
2022/01/03 18:31:39;;;;;;;3.03;0.70;;;;;;;9.19;65.76;97203.31;12759531;23;20013;-78
2022/01/03 18:37:00;;;;;;;2.53;0.87;;;;;;;9.19;65.60;97203.31;12742967;23;20032;-79
2022/01/03 18:42:22;;;;;;;3.17;1.08;;;;;;;9.12;65.52;97193.13;12779812;23;20021;-77
2022/01/03 18:47:43;;;;;;;3.50;1.15;;;;;;;9.03;66.23;97169.59;12759183;23;20017;-77
2022/01/03 18:53:04;;;;;;;3.35;1.10;;;;;;;9.09;66.18;97166.47;12779385;23;20432;-77
2022/01/03 18:58:25;;;;;;;4.60;1.00;;;;;;;9.08;66.11;97173.38;12759202;23;20016;-77
2022/01/03 19:03:45;;;;;;;2.53;0.80;;;;;;;9.06;65.79;97162.09;12759048;23;20017;-77
2022/01/03 19:09:06;;;;;;;2.13;0.60;;;;;;;9.03;65.81;97149.38;12744569;23;20028;-75
2022/01/03 19:14:29;;;;;;;2.03;0.60;;;;;;;9.00;65.78;97148.53;12758131;23;20013;-74
2022/01/03 19:19:53;;;;;;;2.45;0.68;;;;;;;8.98;66.00;97139.31;12738629;23;20331;-76
2022/01/03 19:25:13;;;;;;;1.77;0.70;;;;;;;8.94;66.43;97134.22;12779036;23;20024;-76
2022/01/03 19:30:35;;;;;;;3.15;0.90;;;;;;;8.94;66.69;97120.28;12758710;23;20056;-76
2022/01/03 19:41:35;;;;;;;2.47;0.77;;;;;;;8.93;66.93;97109.75;12761825;23;20025;-76
2022/01/03 19:46:57;;;;;;;2.72;0.80;;;;;;;8.98;66.79;97095.50;12778769;23;20017;-75
2022/01/03 19:52:18;;;;;;;2.45;0.82;;;;;;;8.95;66.87;97095.97;12758846;23;20501;-75
2022/01/03 19:57:39;;;;;;;2.22;0.60;;;;;;;8.91;66.81;97093.66;12758105;23;20020;-75
2022/01/03 20:03:00;;;;;;;3.22;0.70;;;;;;;8.92;67.49;97100.69;12755749;23;20699;-76
2022/01/03 20:08:22;;;;;;;2.05;0.60;;;;;;;8.91;67.32;97088.09;12762777;23;20017;-75
2022/01/03 20:13:46;;;;;;;3.67;0.80;;;;;;;8.84;67.24;97072.34;12782611;23;20017;-75
2022/01/03 20:19:07;;;;;;;4.63;1.30;;;;;;;8.82;67.65;97086.84;12783864;23;20017;-76
2022/01/03 20:24:28;;;;;;;3.38;1.08;;;;;;;8.76;67.77;97069.75;12762269;23;20023;-75
2022/01/03 20:29:49;;;;;;;3.35;0.80;;;;;;;8.60;67.93;97065.97;12747434;23;20017;-77
2022/01/03 20:35:13;;;;;;;4.25;2.03;;;;;;;8.47;68.73;97050.53;12762860;23;20017;-78
2022/01/03 20:40:34;;;;;;;5.83;2.30;;;;;;;8.33;68.47;97053.09;12804041;23;20024;-77
2022/01/03 20:45:54;;;;;;;4.50;1.52;;;;;;;8.27;69.09;97038.81;12766915;23;20021;-79
2022/01/03 20:51:16;;;;;;;5.28;1.08;;;;;;;8.21;69.23;97032.88;12760755;23;20500;-76
2022/01/03 20:56:36;;;;;;;4.20;1.30;;;;;;;8.19;69.41;97021.59;12761574;23;20344;-77
2022/01/03 21:01:58;;;;;;;3.38;1.35;;;;;;;8.14;70.07;97022.66;12740014;23;20013;-76
2022/01/03 21:07:20;;;;;;;5.10;1.48;;;;;;;8.09;69.73;96993.13;12759613;23;20044;-75
2022/01/03 21:12:41;;;;;;;3.53;1.25;;;;;;;8.14;69.43;96986.53;12741137;23;20068;-76
2022/01/03 21:18:03;;;;;;;7.07;1.33;;;;;;;8.15;69.71;96987.97;12739482;23;20020;-76
2022/01/03 21:23:24;;;;;;;4.90;1.50;;;;;;;8.20;69.68;96983.41;12740353;23;20021;-76
2022/01/03 21:28:44;;;;;;;6.18;1.88;;;;;;;8.29;69.49;96982.59;12761119;23;20336;-76
2022/01/03 21:34:08;;;;;;;5.97;1.98;;;;;;;8.38;69.16;96956.06;12762151;23;20025;-76
2022/01/03 21:39:29;;;;;;;6.07;2.70;;;;;;;8.40;69.41;96953.41;12760916;23;20067;-75
2022/01/03 21:44:49;;;;;;;6.22;2.00;;;;;;;8.49;69.13;96952.56;12760509;23;20028;-76
2022/01/03 21:50:10;;;;;;;6.18;2.05;;;;;;;8.54;68.93;96943.91;12757932;23;20012;-76
2022/01/03 21:55:30;;;;;;;4.78;1.55;;;;;;;8.64;68.39;96932.66;12777705;23;20108;-76
2022/01/03 22:00:51;;;;;;;4.75;1.60;;;;;;;8.75;68.36;96937.53;12759083;23;20354;-76
2022/01/03 22:06:12;;;;;;;5.88;2.15;;;;;;;8.77;67.62;96934.84;12759445;23;20013;-75
2022/01/03 22:11:33;;;;;;;6.95;2.45;;;;;;;8.81;68.04;96939.97;12780110;23;20037;-75
2022/01/03 22:16:53;;;;;;;8.90;2.28;;;;;;;8.85;67.62;96938.16;12759671;23;20433;-76
2022/01/03 22:22:20;;;;;;;5.03;1.60;;;;;;;8.87;67.26;96927.13;12759548;23;20013;-76
2022/01/03 22:27:41;;;;;;;3.05;1.17;;;;;;;8.92;67.28;96905.13;12761354;23;20025;-76
2022/01/03 22:33:02;;;;;;;4.38;1.10;;;;;;;8.93;66.96;96915.66;12759705;23;20017;-75
2022/01/03 22:38:24;;;;;;;3.10;0.70;;;;;;;8.95;67.22;96903.91;12738959;23;20071;-76
2022/01/03 22:43:45;;;;;;;6.75;1.00;;;;;;;8.99;66.82;96898.59;12759106;23;20024;-76
2022/01/03 22:49:06;;;;;;;3.97;1.00;;;;;;;9.05;66.77;96882.97;12758790;23;20459;-76
2022/01/03 22:54:27;;;;;;;3.75;0.57;;;;;;;9.06;66.46;96880.91;12778814;23;20024;-76
2022/01/03 22:59:48;;;;;;;3.67;0.75;;;;;;;9.05;66.57;96873.91;12779034;23;20063;-76
2022/01/03 23:05:09;;;;;;;4.82;0.70;;;;;;;9.10;66.44;96870.03;12768238;23;20068;-75
2022/01/03 23:10:30;;;;;;;3.95;0.98;;;;;;;9.09;65.93;96863.75;12758922;23;20024;-75
2022/01/03 23:15:50;;;;;;;2.53;0.60;;;;;;;9.13;65.82;96860.47;12758974;23;20017;-75
2022/01/03 23:21:11;;;;;;;3.03;0.70;;;;;;;9.11;65.69;96847.16;12778755;23;20048;-75
2022/01/03 23:26:32;;;;;;;2.33;0.50;;;;;;;9.13;65.77;96852.09;12738393;23;20028;-76
2022/01/03 23:31:53;;;;;;;3.53;0.50;;;;;;;9.16;65.58;96837.69;12737983;23;20025;-76
2022/01/03 23:37:14;;;;;;;3.92;0.60;;;;;;;9.12;65.60;96831.16;12758223;23;20021;-76
2022/01/03 23:42:35;;;;;;;2.92;0.50;;;;;;;9.11;65.39;96827.66;12738424;23;20088;-76
2022/01/03 23:47:56;;;;;;;2.55;0.55;;;;;;;9.12;65.55;96808.88;12757870;23;20017;-76
2022/01/03 23:53:17;;;;;;;2.80;0.57;;;;;;;9.15;65.32;96804.88;12737951;23;20337;-76
2022/01/03 23:58:37;;;;;;;3.45;0.75;;;;;;;9.12;65.49;96801.25;12758439;23;20013;-75
